Time;durP1;ratioP1;P1;durP2;ratioP2;P2;SDS_P1;SDS_P2;PMS_P1;PMS_P2;Temp;Humidity;BMP_temperature;BMP_pressure;BME280_temperature;BME280_humidity;BME280_pressure;Samples;Min_cycle;Max_cycle;Signal;HPM_P1;HPM_P2
2022/05/28 00:00:53;;;;;;;3.20;3.00;;;;;;;12.45;nan;98727.78;4990040;28;20030;-61
2022/05/28 00:03:20;;;;;;;3.17;2.97;;;;;;;12.47;nan;98713.19;4988924;28;20362;-62
2022/05/28 00:05:45;;;;;;;4.40;2.72;;;;;;;12.46;nan;98711.50;4993662;28;20403;-61
2022/05/28 00:08:11;;;;;;;3.13;2.78;;;;;;;12.49;nan;98713.97;4991530;28;20180;-62
2022/05/28 00:10:37;;;;;;;3.40;2.72;;;;;;;12.48;nan;98707.13;4987798;28;20292;-61
2022/05/28 00:13:03;;;;;;;2.58;2.42;;;;;;;12.39;nan;98704.81;4990268;28;20034;-61
2022/05/28 00:15:28;;;;;;;3.05;2.80;;;;;;;12.54;nan;98710.41;4991680;28;20038;-62
2022/05/28 00:17:54;;;;;;;4.28;2.50;;;;;;;12.60;nan;98712.00;4990523;28;20774;-63
2022/05/28 00:20:19;;;;;;;2.92;2.72;;;;;;;12.60;nan;98709.41;4992814;28;20069;-63
2022/05/28 00:22:45;;;;;;;3.17;2.75;;;;;;;12.65;nan;98713.53;4993034;28;20034;-62
2022/05/28 00:25:14;;;;;;;3.13;2.92;;;;;;;12.67;nan;98705.78;4997044;28;20046;-63
2022/05/28 00:27:40;;;;;;;3.83;3.45;;;;;;;12.58;nan;98688.03;4991461;28;20544;-61
2022/05/28 00:30:09;;;;;;;3.38;3.08;;;;;;;12.67;nan;98706.63;4991893;28;20041;-62
2022/05/28 00:32:35;;;;;;;3.05;2.88;;;;;;;12.73;nan;98714.19;4995584;28;20065;-61
2022/05/28 00:35:02;;;;;;;2.80;2.55;;;;;;;12.73;nan;98706.47;4995533;28;20045;-61
2022/05/28 00:37:27;;;;;;;3.65;2.70;;;;;;;12.85;nan;98709.63;4992494;28;20030;-61
2022/05/28 00:39:53;;;;;;;2.95;2.65;;;;;;;12.85;nan;98701.91;4991737;28;20029;-62
2022/05/28 00:42:18;;;;;;;2.55;2.35;;;;;;;12.80;nan;98695.16;4993686;28;20052;-62
2022/05/28 00:44:44;;;;;;;4.40;2.80;;;;;;;12.83;nan;98695.06;4996442;28;20037;-62
2022/05/28 00:47:10;;;;;;;3.13;2.92;;;;;;;12.86;nan;98701.03;4992752;28;20451;-62
2022/05/28 00:49:35;;;;;;;2.90;2.70;;;;;;;12.88;nan;98705.22;4991971;28;20483;-62
2022/05/28 00:52:04;;;;;;;3.85;2.67;;;;;;;12.83;nan;98695.06;4995499;28;20031;-62
2022/05/28 00:54:35;;;;;;;3.78;3.13;;;;;;;12.86;nan;98695.88;4995614;28;20044;-62
2022/05/28 00:57:03;;;;;;;2.75;2.55;;;;;;;12.87;nan;98702.69;4992418;28;20143;-62
2022/05/28 00:59:28;;;;;;;3.00;2.70;;;;;;;12.78;nan;98673.75;4992093;28;20040;-60
2022/05/28 01:02:00;;;;;;;4.07;3.78;;;;;;;12.87;nan;98682.09;4994716;28;20040;-60
2022/05/28 01:04:45;;;;;;;3.63;3.33;;;;;;;12.89;nan;98685.50;5007967;28;20538;-60
2022/05/28 01:07:40;;;;;;;3.70;3.00;;;;;;;12.88;nan;98681.22;4990036;28;20037;-61
2022/05/28 01:10:11;;;;;;;3.08;2.88;;;;;;;12.94;nan;98688.78;4994666;28;20041;-61
2022/05/28 01:12:56;;;;;;;2.72;2.53;;;;;;;12.89;nan;98670.03;4995598;28;20145;-60
2022/05/28 01:15:26;;;;;;;2.40;2.30;;;;;;;12.99;nan;98680.03;4990536;28;20712;-60
2022/05/28 01:18:14;;;;;;;2.88;2.33;;;;;;;13.06;nan;98676.41;4993204;28;20048;-60
2022/05/28 01:20:49;;;;;;;3.33;2.63;;;;;;;13.00;nan;98655.13;4995129;28;20088;-60
2022/05/28 01:23:46;;;;;;;;;;;;;;;13.03;nan;98671.34;4993593;28;20141;-61
2022/05/28 01:26:23;;;;;;;2.40;2.30;;;;;;;13.08;nan;98673.78;4987591;28;19933;-60
2022/05/28 01:28:57;;;;;;;3.17;2.88;;;;;;;13.01;nan;98659.41;4995236;28;20038;-60
2022/05/28 01:31:25;;;;;;;2.53;2.40;;;;;;;12.96;nan;98645.81;4994857;28;20042;-59
2022/05/28 01:33:52;;;;;;;3.85;2.60;;;;;;;12.94;nan;98642.47;4990555;28;20072;-60
2022/05/28 01:36:19;;;;;;;3.47;2.58;;;;;;;12.83;nan;98650.47;4991966;28;20037;-59
2022/05/28 01:38:46;;;;;;;4.20;2.63;;;;;;;12.82;nan;98635.91;4995390;28;20027;-59
2022/05/28 01:41:13;;;;;;;2.63;2.45;;;;;;;12.78;nan;98632.59;4994756;28;20042;-60
2022/05/28 01:43:43;;;;;;;3.45;2.78;;;;;;;12.73;nan;98631.84;4990104;28;20073;-61
2022/05/28 01:46:13;;;;;;;2.55;2.35;;;;;;;12.85;nan;98627.28;4990940;28;20449;-61
2022/05/28 01:48:41;;;;;;;4.30;2.40;;;;;;;12.87;nan;98625.50;4995556;28;20172;-61
2022/05/28 01:51:09;;;;;;;3.65;2.75;;;;;;;12.91;nan;98632.22;4993230;28;20065;-60
2022/05/28 01:56:21;;;;;;;2.45;2.13;;;;;;;12.80;nan;98630.81;4992990;28;20674;-61
2022/05/28 01:58:47;;;;;;;3.22;2.50;;;;;;;12.79;nan;98634.28;4994242;28;20038;-61
2022/05/28 02:01:13;;;;;;;2.80;2.60;;;;;;;12.76;nan;98630.94;4991882;28;20480;-61
2022/05/28 02:03:48;;;;;;;3.58;3.05;;;;;;;12.76;nan;98629.22;4990171;28;20449;-61
2022/05/28 02:06:13;;;;;;;4.38;2.97;;;;;;;12.76;nan;98623.22;4993401;28;20076;-60
2022/05/28 02:08:42;;;;;;;2.70;2.50;;;;;;;12.71;nan;98620.78;4994125;28;20042;-61
2022/05/28 02:11:15;;;;;;;3.42;2.50;;;;;;;12.74;nan;98619.84;4990422;28;20053;-61
2022/05/28 02:14:17;;;;;;;2.75;2.55;;;;;;;12.72;nan;98606.19;4990280;28;20039;-64
2022/05/28 02:16:51;;;;;;;4.35;3.40;;;;;;;12.69;nan;98612.25;4995944;28;20388;-60
2022/05/28 02:19:26;;;;;;;2.95;2.65;;;;;;;12.66;nan;98612.34;4992456;28;20042;-60
2022/05/28 02:22:02;;;;;;;2.95;2.70;;;;;;;12.58;nan;98593.72;4988667;28;20511;-60
2022/05/28 02:24:41;;;;;;;2.38;2.28;;;;;;;12.60;nan;98589.34;4991858;28;20030;-59
2022/05/28 02:27:12;;;;;;;4.80;2.80;;;;;;;12.69;nan;98603.69;4993614;28;20106;-60
2022/05/28 02:29:38;;;;;;;2.75;2.45;;;;;;;12.70;nan;98606.22;4992102;28;20049;-60
2022/05/28 02:32:24;;;;;;;3.10;2.80;;;;;;;12.69;nan;98599.41;4988650;28;20026;-60
2022/05/28 02:34:50;;;;;;;3.53;3.17;;;;;;;12.63;nan;98602.16;4993002;28;20156;-60
2022/05/28 02:37:19;;;;;;;2.88;2.67;;;;;;;12.68;nan;98609.75;4995372;28;20038;-61
2022/05/28 02:39:45;;;;;;;2.88;2.67;;;;;;;12.59;nan;98595.41;4989067;28;20386;-60
2022/05/28 02:42:11;;;;;;;2.92;2.63;;;;;;;12.69;nan;98596.81;4990644;28;20075;-59
2022/05/28 02:44:36;;;;;;;4.55;2.67;;;;;;;12.73;nan;98601.00;4993417;28;20509;-61
2022/05/28 02:47:02;;;;;;;3.20;2.95;;;;;;;12.66;nan;98591.78;4992695;28;20042;-61
2022/05/28 02:49:27;;;;;;;2.67;2.45;;;;;;;12.60;nan;98579.06;4989960;28;20042;-61
2022/05/28 02:51:53;;;;;;;3.17;2.88;;;;;;;12.76;nan;98602.66;4990842;28;20030;-61
2022/05/28 02:54:19;;;;;;;3.25;2.95;;;;;;;12.77;nan;98604.34;4993155;28;20084;-61
2022/05/28 02:56:45;;;;;;;3.63;2.47;;;;;;;12.66;nan;98586.63;4993728;28;20429;-61
2022/05/28 02:59:11;;;;;;;4.25;2.40;;;;;;;12.79;nan;98584.56;4989785;28;20027;-61
2022/05/28 03:01:37;;;;;;;3.42;3.13;;;;;;;12.82;nan;98597.31;4990681;28;20495;-61
2022/05/28 03:04:06;;;;;;;4.32;2.80;;;;;;;12.85;nan;98592.09;4991539;28;20033;-60
2022/05/28 03:06:31;;;;;;;4.32;3.22;;;;;;;12.75;nan;98570.94;4992120;28;20037;-59
2022/05/28 03:08:57;;;;;;;3.30;3.03;;;;;;;12.89;nan;98582.56;4989351;28;20091;-59
2022/05/28 03:11:22;;;;;;;2.72;2.53;;;;;;;12.88;nan;98589.44;4991433;28;20034;-59
2022/05/28 03:13:48;;;;;;;4.80;3.13;;;;;;;12.89;nan;98588.56;5006797;28;20044;-60
2022/05/28 03:16:14;;;;;;;5.63;3.50;;;;;;;12.88;nan;98580.88;4991589;28;20029;-59
2022/05/28 03:18:40;;;;;;;3.00;2.80;;;;;;;12.85;nan;98563.81;4989059;28;20448;-59
2022/05/28 03:21:06;;;;;;;3.50;2.97;;;;;;;12.95;nan;98584.94;4992152;28;20046;-61
2022/05/28 03:23:31;;;;;;;3.78;3.38;;;;;;;12.97;nan;98596.03;4992093;28;20564;-59
2022/05/28 03:25:57;;;;;;;3.33;2.72;;;;;;;12.94;nan;98593.56;4990939;28;20351;-62
2022/05/28 03:28:23;;;;;;;3.47;3.10;;;;;;;12.85;nan;98597.25;4991997;28;20036;-60
2022/05/28 03:30:48;;;;;;;3.58;3.25;;;;;;;12.75;nan;98604.38;4992440;28;20048;-60
2022/05/28 03:33:14;;;;;;;3.40;3.13;;;;;;;12.65;nan;98604.66;4993242;28;20101;-60
2022/05/28 03:35:40;;;;;;;5.43;3.13;;;;;;;12.57;nan;98593.75;4989510;28;20026;-59
2022/05/28 03:38:06;;;;;;;3.95;3.65;;;;;;;12.59;nan;98610.00;4988509;28;20109;-61
2022/05/28 03:40:32;;;;;;;3.17;2.88;;;;;;;12.51;nan;98599.91;4992472;28;20028;-61
2022/05/28 03:42:57;;;;;;;4.60;3.17;;;;;;;12.57;nan;98596.31;4992461;28;20833;-61
2022/05/28 03:45:25;;;;;;;3.75;3.45;;;;;;;12.54;nan;98604.97;4990734;28;20030;-61
2022/05/28 03:47:51;;;;;;;3.22;2.75;;;;;;;12.49;nan;98600.81;4990100;28;20393;-61
2022/05/28 03:50:16;;;;;;;3.53;3.22;;;;;;;12.46;nan;98591.47;4992821;28;20037;-61
2022/05/28 03:52:42;;;;;;;3.65;2.75;;;;;;;12.45;nan;98606.94;4991535;28;20481;-60
2022/05/28 03:55:08;;;;;;;5.20;3.30;;;;;;;12.54;nan;98614.41;4993212;28;20441;-60
2022/05/28 03:57:33;;;;;;;6.10;2.70;;;;;;;12.52;nan;98611.88;4993052;28;20038;-62
2022/05/28 03:59:59;;;;;;;3.75;2.80;;;;;;;12.51;nan;98617.06;4997173;28;20694;-61
2022/05/28 04:02:25;;;;;;;4.63;2.80;;;;;;;12.51;nan;98624.78;4995118;28;20034;-61
2022/05/28 04:04:51;;;;;;;2.83;2.60;;;;;;;12.45;nan;98610.34;4992584;28;20029;-61
2022/05/28 04:07:17;;;;;;;4.53;3.28;;;;;;;12.49;nan;98616.25;4992400;28;20124;-61
2022/05/28 04:09:43;;;;;;;4.10;2.83;;;;;;;12.47;nan;98611.19;4995991;28;20388;-62
2022/05/28 04:12:09;;;;;;;2.97;2.78;;;;;;;12.42;nan;98613.03;4994820;28;20061;-61
2022/05/28 04:14:35;;;;;;;4.63;3.75;;;;;;;12.43;nan;98616.44;4993309;28;20488;-61
2022/05/28 04:17:00;;;;;;;3.65;3.35;;;;;;;12.29;nan;98596.22;4996701;28;20114;-61
2022/05/28 04:19:25;;;;;;;3.65;2.88;;;;;;;12.23;nan;98606.66;4998733;28;20399;-61
2022/05/28 04:21:51;;;;;;;3.92;3.63;;;;;;;12.25;nan;98620.31;5012783;28;20038;-61
2022/05/28 04:24:17;;;;;;;6.22;3.33;;;;;;;12.25;nan;98613.47;4996985;28;20097;-61
2022/05/28 04:26:43;;;;;;;3.63;3.33;;;;;;;12.09;nan;98609.59;4999381;28;20053;-61
2022/05/28 04:29:09;;;;;;;3.92;3.33;;;;;;;12.24;nan;98626.34;4999464;28;20034;-61
2022/05/28 04:31:34;;;;;;;6.20;3.80;;;;;;;12.25;nan;98613.47;4997463;28;20390;-60
2022/05/28 04:33:59;;;;;;;6.28;3.60;;;;;;;12.36;nan;98629.44;4993334;28;20484;-61
2022/05/28 04:36:25;;;;;;;3.55;3.25;;;;;;;12.25;nan;98610.91;4994333;28;20092;-61
2022/05/28 04:38:50;;;;;;;3.55;2.95;;;;;;;12.26;nan;98616.88;4996026;28;20037;-61
2022/05/28 04:41:16;;;;;;;4.70;3.15;;;;;;;12.18;nan;98600.78;4992976;28;20053;-61
2022/05/28 04:43:42;;;;;;;3.50;3.20;;;;;;;12.17;nan;98599.97;4992289;28;20026;-60
2022/05/28 04:46:07;;;;;;;4.10;2.83;;;;;;;12.05;nan;98597.69;4995065;28;20034;-60
2022/05/28 04:48:33;;;;;;;3.63;3.33;;;;;;;12.07;nan;98607.94;4996054;28;20100;-59
2022/05/28 04:50:59;;;;;;;4.95;3.33;;;;;;;12.08;nan;98592.50;4990761;28;20041;-61
2022/05/28 04:53:24;;;;;;;4.68;3.47;;;;;;;12.11;nan;98606.97;4991593;28;20070;-60
2022/05/28 04:55:50;;;;;;;3.40;2.80;;;;;;;12.07;nan;98598.50;4993545;28;20515;-60
2022/05/28 04:58:15;;;;;;;5.65;3.28;;;;;;;12.19;nan;98621.31;4996203;28;20045;-60
2022/05/28 05:00:42;;;;;;;3.80;3.42;;;;;;;12.20;nan;98627.31;4990806;28;20041;-59
2022/05/28 05:03:08;;;;;;;5.15;3.00;;;;;;;12.21;nan;98631.56;4992016;28;20530;-60
2022/05/28 05:05:33;;;;;;;7.97;2.95;;;;;;;12.28;nan;98633.94;4993340;28;20030;-60
2022/05/28 05:07:59;;;;;;;5.10;2.42;;;;;;;12.29;nan;98622.78;4993845;28;20038;-62
2022/05/28 05:10:24;;;;;;;4.97;3.50;;;;;;;12.43;nan;98635.28;4990294;28;20061;-61
2022/05/28 05:12:50;;;;;;;5.28;2.95;;;;;;;12.49;nan;98634.25;4991632;28;20552;-61
2022/05/28 05:15:15;;;;;;;5.65;3.17;;;;;;;12.46;nan;98639.50;4995960;28;20056;-61
2022/05/28 05:17:41;;;;;;;4.88;2.78;;;;;;;12.45;nan;98636.06;4995731;28;20481;-60
2022/05/28 05:20:09;;;;;;;3.22;2.58;;;;;;;12.44;nan;98625.81;4992284;28;20057;-61
2022/05/28 05:22:34;;;;;;;3.60;2.70;;;;;;;12.52;nan;98634.19;4992098;28;20068;-60
2022/05/28 05:25:00;;;;;;;3.72;2.70;;;;;;;12.54;nan;98616.97;4996560;28;20120;-60
2022/05/28 05:27:26;;;;;;;3.35;2.78;;;;;;;12.72;nan;98631.94;4991763;28;20105;-60
2022/05/28 05:29:51;;;;;;;2.97;2.55;;;;;;;12.79;nan;98636.00;4990686;28;20148;-61
2022/05/28 05:32:16;;;;;;;3.20;2.40;;;;;;;12.81;nan;98636.81;4994548;28;20032;-60
2022/05/28 05:34:45;;;;;;;6.10;2.72;;;;;;;12.89;nan;98634.88;4995486;28;20101;-60
2022/05/28 05:37:11;;;;;;;3.75;2.70;;;;;;;12.83;nan;98625.59;4993301;28;20030;-60
2022/05/28 05:39:36;;;;;;;3.42;3.10;;;;;;;13.01;nan;98641.38;4990061;28;20548;-60
2022/05/28 05:42:01;;;;;;;4.60;2.53;;;;;;;12.92;nan;98619.34;4993831;28;20029;-61
2022/05/28 05:44:27;;;;;;;3.22;2.92;;;;;;;13.10;nan;98629.16;4995482;28;20034;-61
2022/05/28 05:46:52;;;;;;;3.50;3.30;;;;;;;13.05;nan;98633.53;4991458;28;20040;-61
2022/05/28 05:49:18;;;;;;;5.82;3.70;;;;;;;13.05;nan;98632.69;4990668;28;20031;-60
2022/05/28 05:51:46;;;;;;;3.15;2.50;;;;;;;13.14;nan;98632.47;4993932;28;20046;-60
2022/05/28 05:54:13;;;;;;;3.25;2.95;;;;;;;13.12;nan;98632.50;4993984;28;20425;-60
2022/05/28 05:56:38;;;;;;;4.30;3.28;;;;;;;13.11;nan;98625.66;4990694;28;20030;-60
2022/05/28 05:59:04;;;;;;;5.68;3.40;;;;;;;13.19;nan;98626.31;4991025;28;20566;-59
2022/05/28 06:01:30;;;;;;;4.43;3.10;;;;;;;13.18;nan;98608.31;4993755;28;20034;-60
2022/05/28 06:03:56;;;;;;;5.43;3.35;;;;;;;13.29;nan;98608.81;4994463;28;20030;-60
2022/05/28 06:06:21;;;;;;;3.60;3.10;;;;;;;13.32;nan;98610.47;4990627;28;20073;-60
2022/05/28 06:08:47;;;;;;;4.07;3.67;;;;;;;13.43;nan;98601.53;4990408;28;20096;-60
2022/05/28 06:11:13;;;;;;;6.07;3.38;;;;;;;13.70;nan;98602.41;4994158;28;20029;-60
2022/05/28 06:13:39;;;;;;;7.35;3.28;;;;;;;13.87;nan;98596.72;4993019;28;20468;-60
2022/05/28 06:16:05;;;;;;;4.43;3.53;;;;;;;14.01;nan;98587.59;4989611;28;20413;-60
2022/05/28 06:18:31;;;;;;;4.32;3.97;;;;;;;14.15;nan;98576.84;4992008;28;20046;-60
2022/05/28 06:20:58;;;;;;;8.82;3.33;;;;;;;14.41;nan;98592.28;4994443;28;20048;-61
2022/05/28 06:23:24;;;;;;;3.42;3.15;;;;;;;14.52;nan;98581.56;4992105;28;20030;-60
2022/05/28 06:25:49;;;;;;;4.20;3.70;;;;;;;14.60;nan;98580.41;4990233;28;20495;-60
2022/05/28 06:28:15;;;;;;;3.50;3.20;;;;;;;14.47;nan;98571.41;4991656;28;20492;-60
2022/05/28 06:30:43;;;;;;;7.05;3.92;;;;;;;14.52;nan;98569.53;4993304;28;20290;-60
2022/05/28 06:33:09;;;;;;;4.55;3.85;;;;;;;14.71;nan;98558.56;4991744;28;20452;-60
2022/05/28 06:35:34;;;;;;;5.80;4.25;;;;;;;14.80;nan;98563.38;4990170;28;20030;-61
2022/05/28 06:38:00;;;;;;;3.80;3.50;;;;;;;14.89;nan;98566.47;4991262;28;20428;-61
2022/05/28 06:40:25;;;;;;;4.13;3.40;;;;;;;14.88;nan;98557.03;4994263;28;20032;-60
2022/05/28 06:42:51;;;;;;;4.70;3.47;;;;;;;15.04;nan;98559.88;4991687;28;20034;-60
2022/05/28 06:45:17;;;;;;;4.47;3.60;;;;;;;15.05;nan;98558.97;4988644;28;20022;-61
2022/05/28 06:47:45;;;;;;;4.70;3.30;;;;;;;15.21;nan;98554.06;4992143;28;20038;-61
2022/05/28 06:52:56;;;;;;;4.47;4.00;;;;;;;15.61;nan;98558.53;4988788;28;20049;-60
2022/05/28 06:55:22;;;;;;;3.42;3.20;;;;;;;15.70;nan;98553.81;4989795;28;20549;-60
2022/05/28 06:57:48;;;;;;;3.67;3.45;;;;;;;15.77;nan;98539.75;4992992;28;20113;-60
2022/05/28 07:00:14;;;;;;;5.03;3.30;;;;;;;15.71;nan;98557.22;4993638;28;20069;-60
2022/05/28 07:02:39;;;;;;;4.13;3.75;;;;;;;15.86;nan;98567.81;4989607;28;20434;-60
2022/05/28 07:05:05;;;;;;;4.55;2.85;;;;;;;15.88;nan;98571.16;4989721;28;20423;-61
2022/05/28 07:07:31;;;;;;;3.55;3.17;;;;;;;15.70;nan;98545.25;4990057;28;20567;-60
2022/05/28 07:09:56;;;;;;;3.83;2.60;;;;;;;15.96;nan;98552.72;4989224;28;20369;-63
2022/05/28 07:12:22;;;;;;;7.10;3.28;;;;;;;16.18;nan;98556.09;4992246;28;20030;-60
2022/05/28 07:14:47;;;;;;;3.03;2.83;;;;;;;16.13;nan;98550.28;4994162;28;20343;-61
2022/05/28 07:17:13;;;;;;;4.00;2.55;;;;;;;16.10;nan;98555.59;4987215;28;20057;-61
2022/05/28 07:19:38;;;;;;;3.22;2.50;;;;;;;16.28;nan;98544.47;4989301;28;20092;-60
2022/05/28 07:22:04;;;;;;;2.65;2.28;;;;;;;16.33;nan;98577.91;4993547;28;20499;-61
2022/05/28 07:24:29;;;;;;;3.55;2.90;;;;;;;16.23;nan;98556.75;4991320;28;20089;-60
2022/05/28 07:26:55;;;;;;;4.75;3.17;;;;;;;16.28;nan;98570.34;4988419;28;20054;-64
2022/05/28 07:29:20;;;;;;;5.53;2.40;;;;;;;16.18;nan;98568.19;4990821;28;20038;-63
2022/05/28 07:31:45;;;;;;;6.65;2.22;;;;;;;16.38;nan;98561.25;4992528;28;20042;-61
2022/05/28 07:34:11;;;;;;;4.05;3.00;;;;;;;16.36;nan;98557.06;4990629;28;20443;-61
2022/05/28 07:36:37;;;;;;;4.82;3.00;;;;;;;16.36;nan;98550.13;4988721;28;20034;-62
2022/05/28 07:39:04;;;;;;;5.30;2.60;;;;;;;16.33;nan;98536.50;4990501;28;20592;-62
2022/05/28 07:41:29;;;;;;;3.83;2.13;;;;;;;16.45;nan;98541.13;4993195;28;20030;-63
2022/05/28 07:43:59;;;;;;;4.38;3.05;;;;;;;16.52;nan;98545.13;4993648;28;20026;-62
2022/05/28 07:46:28;;;;;;;5.80;2.80;;;;;;;16.55;nan;98532.03;4991869;28;20053;-61
2022/05/28 07:48:56;;;;;;;8.32;2.92;;;;;;;16.40;nan;98524.97;4992465;28;20030;-62
2022/05/28 07:51:22;;;;;;;2.83;2.33;;;;;;;16.31;nan;98544.31;4992778;28;20120;-62
2022/05/28 07:53:48;;;;;;;3.13;2.65;;;;;;;16.25;nan;98529.06;4987938;28;20402;-61
2022/05/28 07:56:13;;;;;;;5.40;2.60;;;;;;;16.43;nan;98554.13;4987825;28;20544;-61
2022/05/28 07:58:39;;;;;;;2.90;2.60;;;;;;;16.55;nan;98541.56;4991730;28;20177;-61
2022/05/28 08:01:06;;;;;;;2.70;2.50;;;;;;;16.43;nan;98525.66;4991407;28;20535;-62
2022/05/28 08:03:32;;;;;;;2.40;2.22;;;;;;;16.54;nan;98532.13;4989887;28;20445;-62
2022/05/28 08:05:58;;;;;;;4.43;2.25;;;;;;;16.38;nan;98525.03;4989124;28;20487;-62
2022/05/28 08:08:26;;;;;;;3.92;2.33;;;;;;;16.31;nan;98509.84;4992128;28;20028;-62
2022/05/28 08:10:52;;;;;;;4.35;2.45;;;;;;;16.57;nan;98535.44;4992694;28;20032;-62
2022/05/28 08:13:21;;;;;;;2.42;1.98;;;;;;;16.75;nan;98529.44;4987886;28;20469;-62
2022/05/28 08:15:49;;;;;;;1.92;1.75;;;;;;;16.58;nan;98563.00;4989480;28;20045;-63
2022/05/28 08:18:17;;;;;;;4.07;2.17;;;;;;;16.53;nan;98536.47;4991742;28;20044;-62
2022/05/28 08:23:27;;;;;;;2.20;2.10;;;;;;;16.74;nan;98551.06;4987126;28;20099;-63
2022/05/28 08:25:53;;;;;;;2.75;2.40;;;;;;;16.72;nan;98581.34;4988584;28;20042;-64
2022/05/28 08:28:20;;;;;;;1.73;1.63;;;;;;;16.83;nan;98562.75;4994303;28;20038;-62
2022/05/28 08:30:46;;;;;;;3.22;1.90;;;;;;;16.74;nan;98551.06;5004017;28;20467;-62
2022/05/28 08:33:14;;;;;;;3.08;2.28;;;;;;;16.93;nan;98560.59;4988932;28;20030;-63
2022/05/28 08:35:40;;;;;;;2.00;1.90;;;;;;;17.15;nan;98584.56;4991288;28;20054;-63
2022/05/28 08:38:09;;;;;;;1.95;1.85;;;;;;;17.06;nan;98574.66;4993096;28;20053;-62
2022/05/28 08:41:04;;;;;;;3.80;2.15;;;;;;;17.12;nan;98598.53;4990761;28;20464;-63
2022/05/28 08:43:33;;;;;;;2.47;2.28;;;;;;;17.14;nan;98572.56;4991598;28;20556;-62
2022/05/28 08:45:59;;;;;;;2.45;1.90;;;;;;;17.18;nan;98582.72;4993411;28;20040;-64
2022/05/28 08:48:48;;;;;;;3.42;2.08;;;;;;;17.43;nan;98563.41;4995924;28;20480;-63
2022/05/28 08:51:28;;;;;;;5.13;1.92;;;;;;;17.28;nan;98560.63;4991985;28;20532;-62
2022/05/28 08:54:39;;;;;;;3.55;2.90;;;;;;;17.33;nan;98547.44;4992734;28;20044;-63
2022/05/28 08:57:11;;;;;;;2.35;1.90;;;;;;;17.42;nan;98546.16;4960950;28;20793;-63
2022/05/28 08:59:50;;;;;;;2.65;2.47;;;;;;;17.38;nan;98574.00;4958871;28;20154;-62
2022/05/28 09:02:37;;;;;;;4.95;2.42;;;;;;;17.32;nan;98577.72;4956437;28;20046;-62
2022/05/28 09:05:04;;;;;;;3.35;2.00;;;;;;;17.33;nan;98569.03;4959341;28;20038;-62
2022/05/28 09:07:30;;;;;;;5.22;2.42;;;;;;;17.19;nan;98565.38;4960558;28;20070;-62
2022/05/28 09:09:57;;;;;;;3.47;1.90;;;;;;;17.20;nan;98567.06;4955321;28;20043;-62
2022/05/28 09:12:40;;;;;;;1.85;1.77;;;;;;;17.27;nan;98551.16;4956417;28;20050;-63
2022/05/28 09:15:06;;;;;;;3.10;1.65;;;;;;;17.70;nan;98552.56;4960734;28;20050;-62
2022/05/28 09:17:40;;;;;;;2.55;1.90;;;;;;;17.89;nan;98564.63;4959487;28;20456;-62
2022/05/28 09:20:05;;;;;;;1.95;1.70;;;;;;;17.62;nan;98580.63;4955292;28;20141;-62
2022/05/28 09:22:31;;;;;;;2.05;1.75;;;;;;;17.60;nan;98581.63;4957472;28;20581;-62
2022/05/28 09:24:57;;;;;;;3.10;1.85;;;;;;;17.45;nan;98571.94;4960341;28;20047;-66
2022/05/28 09:27:34;;;;;;;1.70;1.60;;;;;;;17.24;nan;98572.03;4944499;28;20055;-62
2022/05/28 09:30:02;;;;;;;1.70;1.60;;;;;;;17.38;nan;98568.81;4937045;29;20098;-62
2022/05/28 09:32:46;;;;;;;2.25;1.70;;;;;;;17.72;nan;98586.22;4939814;28;21014;-63
2022/05/28 09:35:33;;;;;;;3.17;1.65;;;;;;;17.86;nan;98567.41;4956435;28;20062;-62
2022/05/28 09:37:58;;;;;;;2.33;2.13;;;;;;;17.82;nan;98560.69;4954328;28;20114;-62
2022/05/28 09:40:38;;;;;;;4.47;1.92;;;;;;;18.03;nan;98559.63;4954127;28;20401;-62
2022/05/28 09:43:03;;;;;;;1.92;1.83;;;;;;;18.11;nan;98581.66;4955629;28;20444;-62
2022/05/28 09:46:06;;;;;;;2.33;2.10;;;;;;;18.04;nan;98561.25;4956323;28;20035;-61
2022/05/28 09:48:31;;;;;;;2.10;1.92;;;;;;;17.97;nan;98549.53;4951289;28;20031;-62
2022/05/28 09:50:57;;;;;;;2.20;2.00;;;;;;;17.94;nan;98558.31;4954263;28;20605;-62
2022/05/28 09:56:36;;;;;;;2.10;2.05;;;;;;;18.17;nan;98557.97;4952122;28;20046;-63
2022/05/28 09:59:06;;;;;;;3.17;1.95;;;;;;;18.06;nan;98531.75;4951807;28;20030;-62
2022/05/28 10:01:34;;;;;;;2.22;1.90;;;;;;;18.21;nan;98549.13;4954815;28;20047;-62
2022/05/28 10:06:53;;;;;;;2.10;1.60;;;;;;;18.18;nan;98536.31;4951767;28;20082;-62
2022/05/28 10:09:27;;;;;;;1.98;1.88;;;;;;;18.20;nan;98557.81;4954329;28;20434;-62
2022/05/28 10:12:14;;;;;;;3.75;1.75;;;;;;;18.15;nan;98562.44;4956576;28;20061;-62
2022/05/28 10:14:39;;;;;;;2.55;1.40;;;;;;;17.98;nan;98544.28;4952165;28;20047;-62
2022/05/28 10:17:05;;;;;;;4.75;1.92;;;;;;;18.12;nan;98551.38;4951076;28;20493;-63
2022/05/28 10:19:30;;;;;;;1.77;1.67;;;;;;;18.09;nan;98554.94;4968577;28;20034;-62
2022/05/28 10:22:00;;;;;;;1.80;1.70;;;;;;;18.37;nan;98550.94;4954531;28;20053;-62
2022/05/28 10:24:28;;;;;;;3.75;2.10;;;;;;;18.25;nan;98558.44;4952620;28;20041;-63
2022/05/28 10:26:58;;;;;;;2.55;1.80;;;;;;;18.47;nan;98557.31;4967118;28;20081;-62
2022/05/28 10:29:45;;;;;;;2.00;1.90;;;;;;;18.08;nan;98558.44;4993711;28;20034;-62
2022/05/28 10:32:34;;;;;;;3.70;2.10;;;;;;;18.11;nan;98547.94;4993272;28;20034;-62
2022/05/28 10:35:14;;;;;;;2.20;2.03;;;;;;;18.32;nan;98550.34;4990647;28;20038;-62
2022/05/28 10:37:40;;;;;;;3.03;1.63;;;;;;;18.25;nan;98560.19;4991345;28;20518;-63
2022/05/28 10:40:27;;;;;;;2.40;2.20;;;;;;;18.26;nan;98551.50;4994427;28;20042;-62
2022/05/28 10:42:58;;;;;;;3.38;2.67;;;;;;;18.44;nan;98562.69;4989304;28;20030;-63
2022/05/28 10:45:31;;;;;;;2.35;2.03;;;;;;;18.23;nan;98544.72;4991423;28;20034;-58
2022/05/28 10:48:23;;;;;;;3.92;2.25;;;;;;;18.48;nan;98523.50;4993256;28;20038;-63
2022/05/28 10:51:02;;;;;;;5.18;2.72;;;;;;;18.88;nan;98518.81;4993687;28;20050;-63
2022/05/28 10:53:37;;;;;;;2.45;2.10;;;;;;;18.92;nan;98539.34;4989290;28;20057;-63
2022/05/28 10:56:11;;;;;;;1.95;1.85;;;;;;;18.97;nan;98528.69;4991291;28;20030;-63
2022/05/28 10:58:57;;;;;;;2.70;2.25;;;;;;;18.82;nan;98545.13;4991315;28;20038;-63
2022/05/28 11:01:48;;;;;;;3.20;2.17;;;;;;;18.57;nan;98556.81;4992314;28;20042;-63
2022/05/28 11:05:11;;;;;;;1.88;1.73;;;;;;;18.60;nan;98524.63;4993789;28;20033;-64
2022/05/28 11:08:21;;;;;;;3.03;1.70;;;;;;;19.03;nan;98516.22;4939944;28;20043;-63
2022/05/28 11:10:58;;;;;;;3.28;2.05;;;;;;;19.13;nan;98524.34;4938200;28;20126;-63
2022/05/28 11:13:40;;;;;;;1.98;1.88;;;;;;;19.15;nan;98518.13;4922658;29;20442;-63
2022/05/28 11:16:57;;;;;;;2.10;1.90;;;;;;;19.38;nan;98522.06;4939882;28;20035;-63
2022/05/28 11:19:38;;;;;;;3.00;2.22;;;;;;;19.14;nan;98526.00;4883689;29;20064;-63
2022/05/28 11:22:25;;;;;;;6.63;2.92;;;;;;;19.12;nan;98520.91;4880754;29;20053;-63
2022/05/28 11:24:58;;;;;;;4.68;2.33;;;;;;;19.39;nan;98512.50;4884105;29;20122;-63
2022/05/28 11:27:42;;;;;;;2.80;1.90;;;;;;;19.30;nan;98526.00;4861859;29;20427;-62
2022/05/28 11:30:19;;;;;;;5.07;2.50;;;;;;;19.32;nan;98519.78;4882827;29;20051;-63
2022/05/28 11:33:10;;;;;;;6.30;2.08;;;;;;;18.73;nan;98538.66;4881273;29;20152;-63
2022/05/28 11:35:42;;;;;;;5.10;2.30;;;;;;;19.21;nan;98529.13;4885542;29;20071;-63
2022/05/28 11:38:17;;;;;;;2.42;2.22;;;;;;;19.12;nan;98520.91;4922805;28;20056;-63
2022/05/28 11:40:48;;;;;;;5.22;2.05;;;;;;;18.86;nan;98531.88;4954595;28;20031;-63
2022/05/28 11:43:42;;;;;;;1.98;1.88;;;;;;;18.99;nan;98512.09;4957853;28;20581;-64
2022/05/28 11:46:19;;;;;;;2.47;2.28;;;;;;;18.92;nan;98531.56;4958165;28;20159;-63
2022/05/28 11:52:18;;;;;;;3.33;2.13;;;;;;;18.53;nan;98523.28;4956288;28;20285;-62
2022/05/28 11:55:16;;;;;;;3.15;1.85;;;;;;;18.92;nan;98513.38;4960823;28;20556;-63
2022/05/28 11:58:06;;;;;;;3.78;3.33;;;;;;;18.89;nan;98505.72;4987300;28;20444;-62
2022/05/28 12:00:39;;;;;;;3.13;2.20;;;;;;;18.92;nan;98504.75;4988452;28;20467;-62
2022/05/28 12:03:11;;;;;;;3.92;2.20;;;;;;;18.82;nan;98512.19;4991768;28;20099;-63
2022/05/28 12:05:51;;;;;;;2.90;1.92;;;;;;;18.87;nan;98509.34;4991490;28;20038;-62
2022/05/28 12:08:24;;;;;;;3.40;1.90;;;;;;;18.85;nan;98506.81;4987898;28;20045;-62
2022/05/28 12:10:54;;;;;;;2.60;2.10;;;;;;;18.83;nan;98502.63;4988735;28;20440;-60
2022/05/28 12:13:43;;;;;;;4.80;2.28;;;;;;;18.81;nan;98513.09;4990783;28;20141;-61
2022/05/28 12:16:11;;;;;;;4.85;2.40;;;;;;;18.72;nan;98513.59;4952036;28;20051;-60
2022/05/28 12:18:42;;;;;;;5.88;2.40;;;;;;;18.81;nan;98500.13;4949144;28;20623;-60
2022/05/28 12:21:08;;;;;;;2.40;1.90;;;;;;;18.70;nan;98505.06;4951497;28;20039;-61
2022/05/28 12:23:37;;;;;;;1.83;1.73;;;;;;;18.99;nan;98506.06;4952251;28;20269;-60